createdAt,value
2023-03-31T00:01:45.856Z,13.76
2023-03-31T00:04:13.552Z,14.63
2023-03-31T00:06:42.246Z,14.56
2023-03-31T00:09:18.847Z,14.46
2023-03-31T00:11:46.210Z,14.57
2023-03-31T00:14:12.604Z,14.46
2023-03-31T00:16:39.452Z,14.12
2023-03-31T00:19:05.948Z,14.49
2023-03-31T00:21:36.929Z,14.38
2023-03-31T00:24:06.269Z,14.70
2023-03-31T00:26:34.134Z,14.68
2023-03-31T00:29:00.869Z,14.71
2023-03-31T00:31:28.861Z,14.52
2023-03-31T00:33:56.054Z,14.07
2023-03-31T00:36:27.363Z,14.84
2023-03-31T00:38:56.140Z,14.89
2023-03-31T00:41:22.687Z,14.57
2023-03-31T00:44:12.879Z,14.93
2023-03-31T00:46:44.395Z,14.89
2023-03-31T00:49:20.774Z,14.91
2023-03-31T00:51:49.648Z,14.27
2023-03-31T00:54:16.181Z,14.34
2023-03-31T00:56:48.010Z,14.43
2023-03-31T00:59:14.693Z,14.96
2023-03-31T01:01:44.289Z,14.97
2023-03-31T01:04:13.917Z,14.86
2023-03-31T01:06:50.350Z,14.82
2023-03-31T01:09:16.936Z,14.94
2023-03-31T01:11:46.200Z,14.91
2023-03-31T01:14:13.057Z,15.17
2023-03-31T01:16:39.874Z,14.74
2023-03-31T01:19:19.870Z,14.36
2023-03-31T01:22:17.141Z,15.25
2023-03-31T01:25:09.829Z,14.97
2023-03-31T01:28:07.307Z,15.19
2023-03-31T01:31:02.975Z,15.11
2023-03-31T01:33:38.294Z,15.12
2023-03-31T01:36:37.647Z,14.93
2023-03-31T01:39:11.641Z,14.95
2023-03-31T01:41:57.937Z,14.88
2023-03-31T01:44:45.761Z,14.49
2023-03-31T01:47:23.168Z,14.70
2023-03-31T01:50:00.248Z,14.23
2023-03-31T01:52:42.157Z,14.26
2023-03-31T01:55:16.289Z,13.40
2023-03-31T01:57:52.715Z,13.30
2023-03-31T02:00:33.266Z,13.79
2023-03-31T02:03:02.353Z,13.56
2023-03-31T02:05:43.969Z,13.51
2023-03-31T02:08:23.038Z,14.19
2023-03-31T02:10:52.015Z,13.79
2023-03-31T02:13:21.040Z,13.07
2023-03-31T02:15:54.681Z,13.17
2023-03-31T02:18:26.178Z,13.43
2023-03-31T02:20:54.491Z,14.00
2023-03-31T02:23:26.616Z,14.04
2023-03-31T02:25:59.551Z,13.85
2023-03-31T02:28:28.286Z,13.99
2023-03-31T02:31:12.869Z,14.10
2023-03-31T02:33:39.194Z,14.13
2023-03-31T02:36:06.419Z,14.19
2023-03-31T02:38:39.001Z,13.53
2023-03-31T02:41:06.466Z,14.11
2023-03-31T02:43:33.057Z,14.11
2023-03-31T02:45:59.499Z,14.25
2023-03-31T02:48:32.527Z,14.14
2023-03-31T02:51:08.618Z,14.58
2023-03-31T02:54:12.508Z,14.49
2023-03-31T02:56:47.947Z,14.56
2023-03-31T02:59:39.836Z,14.67
2023-03-31T03:02:37.370Z,14.62
2023-03-31T03:05:23.699Z,14.68
2023-03-31T03:08:07.129Z,14.67
2023-03-31T03:11:01.522Z,14.67
2023-03-31T03:13:46.453Z,14.35
2023-03-31T03:16:28.975Z,14.38
2023-03-31T03:19:00.294Z,14.21
2023-03-31T03:21:28.123Z,14.62
2023-03-31T03:23:54.769Z,14.50
2023-03-31T03:26:23.524Z,14.55
2023-03-31T03:28:51.140Z,14.60
2023-03-31T03:31:17.512Z,14.01
2023-03-31T03:33:43.912Z,14.58
2023-03-31T03:36:10.760Z,14.67
2023-03-31T03:38:37.204Z,14.62
2023-03-31T03:41:03.924Z,14.16
2023-03-31T03:43:30.589Z,14.53
2023-03-31T03:45:57.085Z,14.25
2023-03-31T03:48:23.628Z,14.65
2023-03-31T03:50:50.512Z,14.39
2023-03-31T03:53:16.914Z,13.88
2023-03-31T03:55:43.251Z,14.44
2023-03-31T03:58:09.696Z,14.28
2023-03-31T04:00:36.079Z,13.76
2023-03-31T04:03:02.798Z,14.50
2023-03-31T04:05:29.199Z,14.26
2023-03-31T04:07:55.625Z,14.30
2023-03-31T04:10:21.981Z,14.33
2023-03-31T04:12:48.407Z,14.49
2023-03-31T04:15:15.280Z,13.98
2023-03-31T04:17:41.758Z,14.30
2023-03-31T04:20:10.183Z,14.30
2023-03-31T04:22:40.814Z,13.89
2023-03-31T04:25:16.476Z,13.93
2023-03-31T04:27:54.538Z,14.26
2023-03-31T04:30:30.737Z,14.40
2023-03-31T04:32:59.938Z,14.50
2023-03-31T04:35:49.581Z,14.44
2023-03-31T04:38:18.759Z,14.43
2023-03-31T04:40:47.345Z,14.39
2023-03-31T04:43:14.492Z,14.61
2023-03-31T04:45:41.501Z,14.37
2023-03-31T04:48:08.512Z,14.39
2023-03-31T04:50:35.858Z,14.21
2023-03-31T04:53:03.578Z,13.90
2023-03-31T04:55:30.095Z,14.29
2023-03-31T04:57:56.727Z,14.23
2023-03-31T05:00:23.676Z,14.23
2023-03-31T05:02:51.455Z,14.00
2023-03-31T05:05:18.358Z,14.19
2023-03-31T05:07:44.739Z,14.15
2023-03-31T05:10:11.116Z,14.19
2023-03-31T05:12:37.921Z,14.51
2023-03-31T05:15:06.389Z,14.12
2023-03-31T05:17:34.210Z,13.67
2023-03-31T05:20:01.043Z,14.15
2023-03-31T05:22:27.741Z,13.45
2023-03-31T05:24:54.085Z,13.43
2023-03-31T05:27:21.840Z,14.24
2023-03-31T05:29:48.197Z,13.97
2023-03-31T05:32:14.537Z,14.25
2023-03-31T05:34:43.140Z,14.23
2023-03-31T05:37:09.551Z,14.20
2023-03-31T05:39:36.041Z,13.82
2023-03-31T05:42:03.415Z,14.16
2023-03-31T05:44:29.756Z,13.84
2023-03-31T05:46:56.362Z,13.59
2023-03-31T05:49:22.740Z,13.69
2023-03-31T05:51:49.083Z,13.78
2023-03-31T05:54:15.515Z,13.45
2023-03-31T05:56:41.848Z,13.10
2023-03-31T05:59:08.309Z,13.48
2023-03-31T06:01:50.782Z,13.84
2023-03-31T06:04:17.208Z,13.28
2023-03-31T06:06:44.318Z,13.42
2023-03-31T06:09:12.276Z,14.08
2023-03-31T06:11:38.891Z,13.19
2023-03-31T06:14:05.499Z,13.89
2023-03-31T06:16:31.923Z,13.96
2023-03-31T06:18:58.274Z,13.09
2023-03-31T06:21:24.599Z,13.77
2023-03-31T06:23:55.046Z,13.62
2023-03-31T06:26:22.820Z,13.45
2023-03-31T06:28:49.334Z,13.36
2023-03-31T06:31:19.919Z,13.54
2023-03-31T06:33:46.624Z,13.34
2023-03-31T06:36:15.578Z,13.42
2023-03-31T06:38:42.334Z,13.36
2023-03-31T06:41:11.730Z,13.57
2023-03-31T06:43:38.133Z,12.61
2023-03-31T06:46:05.721Z,13.96
2023-03-31T06:48:32.524Z,12.99
2023-03-31T06:51:00.734Z,14.22
2023-03-31T06:53:27.897Z,14.32
2023-03-31T06:55:54.343Z,14.18
2023-03-31T06:58:20.720Z,14.37
2023-03-31T07:00:47.280Z,14.43
2023-03-31T07:03:14.281Z,14.52
2023-03-31T07:05:40.992Z,13.95
2023-03-31T07:08:07.448Z,14.00
2023-03-31T07:10:33.791Z,14.45
2023-03-31T07:13:00.290Z,14.32
2023-03-31T07:15:28.209Z,15.00
2023-03-31T07:18:01.881Z,15.29
2023-03-31T07:20:29.863Z,14.69
2023-03-31T07:22:56.709Z,14.57
2023-03-31T07:25:23.186Z,15.15
2023-03-31T07:27:49.819Z,15.04
2023-03-31T07:30:18.828Z,15.08
2023-03-31T07:32:50.151Z,14.75
2023-03-31T07:35:17.873Z,15.08
2023-03-31T07:37:46.635Z,14.51
2023-03-31T07:40:31.323Z,15.07
2023-03-31T07:42:57.756Z,14.98
2023-03-31T07:45:26.212Z,14.56
2023-03-31T07:47:53.425Z,15.29
2023-03-31T07:50:20.399Z,14.64
2023-03-31T07:52:47.389Z,14.73
2023-03-31T07:55:14.618Z,14.45
2023-03-31T07:57:42.134Z,15.09
2023-03-31T08:00:12.161Z,15.65
2023-03-31T08:02:39.931Z,15.28
2023-03-31T08:05:07.534Z,15.37
2023-03-31T08:07:35.671Z,15.43
2023-03-31T08:10:04.515Z,15.47
2023-03-31T08:12:31.170Z,15.06
2023-03-31T08:14:57.586Z,15.92
2023-03-31T08:17:23.955Z,16.34
2023-03-31T08:19:51.603Z,15.60
2023-03-31T08:22:18.134Z,15.79
2023-03-31T08:24:44.490Z,15.81
2023-03-31T08:27:12.453Z,15.61
2023-03-31T08:29:39.186Z,16.12
2023-03-31T08:32:07.200Z,16.27
2023-03-31T08:34:33.832Z,15.65
2023-03-31T08:37:00.208Z,15.23
2023-03-31T08:39:27.253Z,15.49
2023-03-31T08:42:16.170Z,16.39
2023-03-31T08:44:57.461Z,16.31
2023-03-31T08:47:26.942Z,15.75
2023-03-31T08:50:02.966Z,16.00
2023-03-31T08:52:40.710Z,15.90
2023-03-31T08:55:12.188Z,16.23
2023-03-31T08:57:56.153Z,16.71
2023-03-31T09:00:22.789Z,16.53
2023-03-31T09:03:00.375Z,16.52
2023-03-31T09:06:12.851Z,16.09
2023-03-31T09:08:42.042Z,16.78
2023-03-31T09:11:14.510Z,17.32
2023-03-31T09:13:55.692Z,16.71
2023-03-31T09:16:50.434Z,16.57
2023-03-31T09:19:38.408Z,17.38
2023-03-31T09:23:00.389Z,17.17
2023-03-31T09:25:33.216Z,17.02
2023-03-31T09:28:08.398Z,16.23
2023-03-31T09:30:37.652Z,16.45
2023-03-31T09:33:22.657Z,15.22
2023-03-31T09:35:51.403Z,15.23
2023-03-31T09:38:22.601Z,15.36
2023-03-31T09:41:05.875Z,14.25
2023-03-31T09:43:38.209Z,15.95
2023-03-31T09:49:35.227Z,16.32
2023-03-31T09:52:14.322Z,16.62
2023-03-31T09:54:48.405Z,15.98
2023-03-31T09:57:31.231Z,16.75
2023-03-31T10:00:14.380Z,16.81
2023-03-31T10:02:49.776Z,16.66
2023-03-31T10:05:37.704Z,16.04
2023-03-31T10:08:30.455Z,17.10
2023-03-31T10:10:58.426Z,16.76
2023-03-31T10:13:49.823Z,16.90
2023-03-31T10:16:45.958Z,16.63
2023-03-31T10:19:28.815Z,15.69
2023-03-31T10:21:58.742Z,15.39
2023-03-31T10:24:27.563Z,15.33
2023-03-31T10:26:57.186Z,15.45
2023-03-31T10:29:32.595Z,15.30
2023-03-31T10:32:23.169Z,15.10
2023-03-31T10:34:50.691Z,14.51
2023-03-31T10:37:22.921Z,15.06
2023-03-31T10:40:09.400Z,15.53
2023-03-31T10:42:36.598Z,15.61
2023-03-31T10:45:37.465Z,15.30
2023-03-31T10:48:16.746Z,15.02
2023-03-31T10:53:27.655Z,15.13
2023-03-31T10:56:04.836Z,15.05
2023-03-31T10:58:54.962Z,15.67
2023-03-31T11:01:30.935Z,15.69
2023-03-31T11:04:29.300Z,15.82
2023-03-31T11:07:12.547Z,16.61
2023-03-31T11:10:09.988Z,17.09
2023-03-31T11:12:46.507Z,17.95
2023-03-31T11:15:25.583Z,18.06
2023-03-31T11:18:03.415Z,17.74
2023-03-31T11:20:50.562Z,17.89
2023-03-31T11:23:42.045Z,18.29
2023-03-31T11:26:29.197Z,18.34
2023-03-31T11:29:33.806Z,17.74
2023-03-31T11:32:24.372Z,17.61
2023-03-31T11:35:05.989Z,18.21
2023-03-31T11:37:41.614Z,18.73
2023-03-31T11:40:32.728Z,17.82
2023-03-31T11:43:04.984Z,17.97
2023-03-31T11:45:39.922Z,17.11
2023-03-31T11:48:16.670Z,16.10
2023-03-31T11:50:47.001Z,15.21
2023-03-31T11:53:20.925Z,15.35
2023-03-31T11:55:50.311Z,15.31
2023-03-31T11:59:02.890Z,15.28
2023-03-31T12:01:55.377Z,16.37
2023-03-31T12:04:38.334Z,16.30
2023-03-31T12:07:31.243Z,16.41
2023-03-31T12:10:12.819Z,16.99
2023-03-31T12:12:55.518Z,17.23
2023-03-31T12:15:40.056Z,17.23
2023-03-31T12:18:18.204Z,17.88
2023-03-31T12:20:56.421Z,17.93
2023-03-31T12:23:28.421Z,17.93
2023-03-31T12:26:08.716Z,17.52
2023-03-31T12:28:37.388Z,17.42
2023-03-31T12:31:07.073Z,17.21
2023-03-31T12:33:46.467Z,17.19
2023-03-31T12:36:34.628Z,16.84
2023-03-31T12:39:37.432Z,16.54
2023-03-31T12:42:31.656Z,16.61
2023-03-31T12:45:14.918Z,17.17
2023-03-31T12:47:49.910Z,17.60
2023-03-31T12:50:32.882Z,18.51
2023-03-31T12:53:08.946Z,17.68
2023-03-31T12:55:57.713Z,17.52
2023-03-31T12:58:31.752Z,18.61
2023-03-31T13:01:05.731Z,18.23
2023-03-31T13:03:40.479Z,18.96
2023-03-31T13:06:11.126Z,18.34
2023-03-31T13:09:17.663Z,17.65
2023-03-31T13:11:49.910Z,17.70
2023-03-31T13:14:31.591Z,17.95
2023-03-31T13:17:35.801Z,17.84
2023-03-31T13:20:32.207Z,18.06
2023-03-31T13:23:25.430Z,17.74
2023-03-31T13:25:53.449Z,18.25
2023-03-31T13:28:25.943Z,17.39
2023-03-31T13:30:54.984Z,17.40
2023-03-31T13:33:26.821Z,17.59
2023-03-31T13:36:06.201Z,17.74
2023-03-31T13:38:41.736Z,17.72
2023-03-31T13:41:37.637Z,18.16
2023-03-31T13:44:18.067Z,17.85
2023-03-31T13:47:18.097Z,18.12
2023-03-31T13:49:55.775Z,17.62
2023-03-31T13:52:44.406Z,18.02
2023-03-31T13:55:32.515Z,18.23
2023-03-31T13:58:24.971Z,17.90
2023-03-31T14:01:10.381Z,18.15
2023-03-31T14:04:03.023Z,18.00
2023-03-31T14:06:39.708Z,18.03
2023-03-31T14:09:13.585Z,17.30
2023-03-31T14:11:40.122Z,17.65
2023-03-31T14:14:17.297Z,17.53
2023-03-31T14:17:00.533Z,17.31
2023-03-31T14:19:42.080Z,16.28
2023-03-31T14:22:32.464Z,15.42
2023-03-31T14:25:13.835Z,15.02
2023-03-31T14:28:05.267Z,15.05
2023-03-31T14:30:53.881Z,15.22
2023-03-31T14:33:59.371Z,15.15
2023-03-31T14:36:37.990Z,14.82
2023-03-31T14:39:07.335Z,15.11
2023-03-31T14:41:33.771Z,15.53
2023-03-31T14:44:06.804Z,14.66
2023-03-31T14:46:38.372Z,14.92
2023-03-31T14:49:21.361Z,14.21
2023-03-31T14:51:48.688Z,14.72
2023-03-31T14:54:20.206Z,14.59
2023-03-31T14:56:51.031Z,14.58
2023-03-31T14:59:23.046Z,14.90
2023-03-31T15:01:50.839Z,14.60
2023-03-31T15:04:28.825Z,15.10
2023-03-31T15:07:03.097Z,15.15
2023-03-31T15:09:33.672Z,15.54
2023-03-31T15:12:03.727Z,14.56
2023-03-31T15:14:37.810Z,14.73
2023-03-31T15:17:04.250Z,14.95
2023-03-31T15:19:34.362Z,14.65
2023-03-31T15:22:18.608Z,14.78
2023-03-31T15:24:46.455Z,14.84
2023-03-31T15:27:38.631Z,15.02
2023-03-31T15:30:14.715Z,15.00
2023-03-31T15:32:41.844Z,15.16
2023-03-31T15:35:22.574Z,15.72
2023-03-31T15:37:52.179Z,15.45
2023-03-31T15:40:29.982Z,15.46
2023-03-31T15:45:50.991Z,15.41
2023-03-31T15:48:23.461Z,15.17
2023-03-31T15:50:51.724Z,14.96
2023-03-31T15:53:27.434Z,15.45
2023-03-31T15:55:56.792Z,14.99
2023-03-31T15:58:44.470Z,14.91
2023-03-31T16:01:15.689Z,14.60
2023-03-31T16:03:42.217Z,14.74
2023-03-31T16:06:19.247Z,15.08
2023-03-31T16:08:50.476Z,15.04
2023-03-31T16:11:26.647Z,15.39
2023-03-31T16:13:58.089Z,15.11
2023-03-31T16:16:27.114Z,15.12
2023-03-31T16:19:09.964Z,15.15
2023-03-31T16:21:42.930Z,15.12
2023-03-31T16:24:09.896Z,15.26
2023-03-31T16:26:37.486Z,15.33
2023-03-31T16:29:05.181Z,14.44
2023-03-31T16:31:37.633Z,15.15
2023-03-31T16:34:06.720Z,14.83
2023-03-31T16:36:33.893Z,14.65
2023-03-31T16:39:02.306Z,14.45
2023-03-31T16:41:29.622Z,14.60
2023-03-31T16:43:56.210Z,14.54
2023-03-31T16:46:23.204Z,14.36
2023-03-31T16:48:50.258Z,14.58
2023-03-31T16:51:17.164Z,14.14
2023-03-31T16:53:44.330Z,13.59
2023-03-31T16:56:11.866Z,13.70
2023-03-31T16:58:39.173Z,14.03
2023-03-31T17:01:07.297Z,14.41
2023-03-31T17:03:36.559Z,13.28
2023-03-31T17:06:09.014Z,13.93
2023-03-31T17:08:35.494Z,14.03
2023-03-31T17:11:05.221Z,13.77
2023-03-31T17:13:33.797Z,13.32
2023-03-31T17:18:46.657Z,13.57
2023-03-31T17:21:15.687Z,13.94
2023-03-31T17:23:42.879Z,13.99
2023-03-31T17:26:12.825Z,13.27
2023-03-31T17:28:40.049Z,13.74
2023-03-31T17:31:14.493Z,13.71
2023-03-31T17:33:41.726Z,13.71
2023-03-31T17:36:08.722Z,13.30
2023-03-31T17:38:35.614Z,13.25
2023-03-31T17:41:07.463Z,14.00
2023-03-31T17:43:35.388Z,13.61
2023-03-31T17:46:09.939Z,13.16
2023-03-31T17:48:39.246Z,13.93
2023-03-31T17:51:18.145Z,13.73
2023-03-31T17:53:46.777Z,13.77
2023-03-31T17:56:14.738Z,14.01
2023-03-31T17:58:41.496Z,13.95
2023-03-31T18:01:09.486Z,14.02
2023-03-31T18:03:36.651Z,14.21
2023-03-31T18:06:06.500Z,14.07
2023-03-31T18:08:34.672Z,13.46
2023-03-31T18:11:02.837Z,13.80
2023-03-31T18:13:29.231Z,14.07
2023-03-31T18:15:56.265Z,13.48
2023-03-31T18:18:25.943Z,13.90
2023-03-31T18:20:52.878Z,14.10
2023-03-31T18:23:19.698Z,14.42
2023-03-31T18:25:46.561Z,14.36
2023-03-31T18:28:14.409Z,13.66
2023-03-31T18:30:43.316Z,14.34
2023-03-31T18:33:11.678Z,14.30
2023-03-31T18:35:39.279Z,14.09
2023-03-31T18:38:06.432Z,13.70
2023-03-31T18:40:33.613Z,13.62
2023-03-31T18:43:00.652Z,13.40
2023-03-31T18:45:28.243Z,14.07
2023-03-31T18:47:55.068Z,14.24
2023-03-31T18:50:23.354Z,14.33
2023-03-31T18:52:54.502Z,14.27
2023-03-31T18:55:21.973Z,14.11
2023-03-31T18:57:48.679Z,13.50
2023-03-31T19:00:15.870Z,13.97
2023-03-31T19:02:42.502Z,14.11
2023-03-31T19:05:09.654Z,13.87
2023-03-31T19:07:36.347Z,14.02
2023-03-31T19:10:03.827Z,13.97
2023-03-31T19:12:30.532Z,14.02
2023-03-31T19:14:58.210Z,13.87
2023-03-31T19:17:24.898Z,13.49
2023-03-31T19:19:51.333Z,13.59
2023-03-31T19:22:17.743Z,14.19
2023-03-31T19:24:45.074Z,13.94
2023-03-31T19:27:12.622Z,13.93
2023-03-31T19:29:39.026Z,14.22
2023-03-31T19:32:06.065Z,14.15
2023-03-31T19:34:32.502Z,13.46
2023-03-31T19:36:58.860Z,13.71
2023-03-31T19:39:26.667Z,13.24
2023-03-31T19:41:53.043Z,14.19
2023-03-31T19:44:19.603Z,13.69
2023-03-31T19:46:48.080Z,13.85
2023-03-31T19:49:15.245Z,14.00
2023-03-31T19:51:41.793Z,14.11
2023-03-31T19:54:11.277Z,13.99
2023-03-31T19:56:38.079Z,13.71
2023-03-31T19:59:05.307Z,13.82
2023-03-31T20:01:32.392Z,13.53
2023-03-31T20:03:59.161Z,13.51
2023-03-31T20:06:28.494Z,13.99
2023-03-31T20:08:58.138Z,13.52
2023-03-31T20:11:26.274Z,13.96
2023-03-31T20:13:53.562Z,13.38
2023-03-31T20:16:23.564Z,13.39
2023-03-31T20:18:55.507Z,13.75
2023-03-31T20:21:24.654Z,13.77
2023-03-31T20:23:51.635Z,13.32
2023-03-31T20:26:20.497Z,13.44
2023-03-31T20:28:47.710Z,13.27
2023-03-31T20:31:20.149Z,14.24
2023-03-31T20:33:47.384Z,13.83
2023-03-31T20:36:16.962Z,13.96
2023-03-31T20:38:46.506Z,13.57
2023-03-31T20:41:14.501Z,14.06
2023-03-31T20:43:41.024Z,13.60
2023-03-31T20:46:08.683Z,14.00
2023-03-31T20:48:37.894Z,14.18
2023-03-31T20:51:07.082Z,14.12
2023-03-31T20:53:41.878Z,13.82
2023-03-31T20:56:18.330Z,13.81
2023-03-31T20:58:45.939Z,13.88
2023-03-31T21:01:18.201Z,13.63
2023-03-31T21:03:48.948Z,13.69
2023-03-31T21:06:16.278Z,13.26
2023-03-31T21:09:01.429Z,13.86
2023-03-31T21:11:28.248Z,13.32
2023-03-31T21:13:54.873Z,13.75
2023-03-31T21:16:22.916Z,14.17
2023-03-31T21:18:51.696Z,13.96
2023-03-31T21:21:19.349Z,14.13
2023-03-31T21:23:46.665Z,13.57
2023-03-31T21:26:15.558Z,14.12
2023-03-31T21:28:43.280Z,13.47
2023-03-31T21:31:16.931Z,13.71
2023-03-31T21:33:45.973Z,13.63
2023-03-31T21:36:17.956Z,13.27
2023-03-31T21:38:45.500Z,13.43
2023-03-31T21:41:17.584Z,13.21
2023-03-31T21:43:44.828Z,13.58
2023-03-31T21:46:27.269Z,13.55
2023-03-31T21:48:54.359Z,13.47
2023-03-31T21:51:22.206Z,13.39
2023-03-31T21:53:49.672Z,13.73
2023-03-31T21:56:16.495Z,13.34
2023-03-31T21:58:42.878Z,13.48
2023-03-31T22:01:09.356Z,13.52
2023-03-31T22:03:36.577Z,13.70
2023-03-31T22:06:06.793Z,13.35
2023-03-31T22:08:35.313Z,13.27
2023-03-31T22:11:01.728Z,13.05
2023-03-31T22:13:29.405Z,13.35
2023-03-31T22:15:56.380Z,12.91
2023-03-31T22:18:22.933Z,12.85
2023-03-31T22:20:49.894Z,13.55
2023-03-31T22:23:17.127Z,13.41
2023-03-31T22:25:43.756Z,13.25
2023-03-31T22:28:10.310Z,12.93
2023-03-31T22:30:36.889Z,13.01
2023-03-31T22:33:03.432Z,12.84
2023-03-31T22:35:29.808Z,12.43
2023-03-31T22:37:56.156Z,12.20
2023-03-31T22:40:23.773Z,13.03
2023-03-31T22:42:50.172Z,13.14
2023-03-31T22:45:16.731Z,12.92
2023-03-31T22:47:43.211Z,13.30
2023-03-31T22:50:12.174Z,13.00
2023-03-31T22:52:38.645Z,13.08
2023-03-31T22:55:06.099Z,13.16
2023-03-31T22:57:32.810Z,12.97
2023-03-31T22:59:59.275Z,12.63
2023-03-31T23:02:25.820Z,13.08
2023-03-31T23:04:52.218Z,12.78
2023-03-31T23:07:18.650Z,13.09
2023-03-31T23:09:45.331Z,12.68
2023-03-31T23:12:11.721Z,13.16
2023-03-31T23:14:38.205Z,12.87
2023-03-31T23:17:04.618Z,13.05
2023-03-31T23:19:31.873Z,12.08
2023-03-31T23:21:58.384Z,13.07
2023-03-31T23:24:26.021Z,13.09
2023-03-31T23:26:52.421Z,12.79
2023-03-31T23:29:18.854Z,12.64
2023-03-31T23:31:45.203Z,12.34
2023-03-31T23:34:13.811Z,13.23
2023-03-31T23:36:42.117Z,12.36
2023-03-31T23:39:08.568Z,12.86
2023-03-31T23:41:34.952Z,12.82
2023-03-31T23:44:01.700Z,13.22
2023-03-31T23:46:29.630Z,13.26
2023-03-31T23:48:56.260Z,12.94
2023-03-31T23:51:22.937Z,13.06
2023-03-31T23:53:50.062Z,12.76
2023-03-31T23:56:16.903Z,12.54
2023-03-31T23:58:44.920Z,12.69
